createdAt,value
2018-07-07T00:00:56.197Z,80.07
2018-07-07T00:04:00.087Z,81.93
2018-07-07T00:07:03.109Z,81.94
2018-07-07T00:10:07.942Z,82.12
2018-07-07T00:13:11.087Z,82.49
2018-07-07T00:16:14.190Z,82.77
2018-07-07T00:19:19.438Z,83.03
2018-07-07T00:22:22.369Z,83.74
2018-07-07T00:25:25.316Z,83.89
2018-07-07T00:28:29.576Z,83.09
2018-07-07T00:31:33.955Z,83.43
2018-07-07T00:34:38.037Z,84.22
2018-07-07T00:37:41.985Z,84.97
2018-07-07T00:40:46.069Z,84.54
2018-07-07T00:43:50.371Z,85.14
2018-07-07T00:46:53.383Z,84.56
2018-07-07T00:49:56.385Z,84.39
2018-07-07T00:53:01.424Z,84.23
2018-07-07T00:56:04.527Z,84.23
2018-07-07T00:59:09.554Z,85.07
2018-07-07T01:02:22.474Z,85.17
2018-07-07T01:05:34.001Z,84.59
2018-07-07T01:08:38.098Z,84.49
2018-07-07T01:11:42.238Z,85.27
2018-07-07T01:14:45.670Z,84.86
2018-07-07T01:17:49.709Z,85.08
2018-07-07T01:20:53.723Z,84.86
2018-07-07T01:23:56.857Z,84.99
2018-07-07T01:26:59.853Z,85.64
2018-07-07T01:30:03.191Z,85.47
2018-07-07T01:33:06.213Z,84.86
2018-07-07T01:36:09.187Z,85.23
2018-07-07T01:39:13.225Z,85.38
2018-07-07T01:42:17.420Z,85.28
2018-07-07T01:45:21.517Z,86.58
2018-07-07T01:48:24.535Z,85.97
2018-07-07T01:51:28.548Z,86.28
2018-07-07T01:54:32.571Z,86.03
2018-07-07T01:57:36.901Z,85.87
2018-07-07T02:00:40.245Z,84.44
2018-07-07T02:03:44.290Z,82.88
2018-07-07T02:06:48.297Z,82.60
2018-07-07T02:09:53.349Z,81.96
2018-07-07T02:12:56.305Z,81.41
2018-07-07T02:15:59.230Z,81.29
2018-07-07T02:19:02.317Z,80.58
2018-07-07T02:22:05.336Z,79.85
2018-07-07T02:25:09.365Z,80.50
2018-07-07T02:28:12.406Z,80.39
2018-07-07T02:31:15.431Z,79.75
2018-07-07T02:34:19.462Z,79.83
2018-07-07T02:37:24.439Z,79.67
2018-07-07T02:40:29.503Z,79.78
2018-07-07T02:43:32.486Z,79.52
2018-07-07T02:46:36.527Z,79.29
2018-07-07T02:49:41.545Z,80.41
2018-07-07T02:52:45.535Z,81.73
2018-07-07T02:55:48.655Z,82.71
2018-07-07T02:58:52.629Z,82.92
2018-07-07T03:01:56.636Z,83.67
2018-07-07T03:05:00.682Z,82.99
2018-07-07T03:08:04.726Z,83.08
2018-07-07T03:11:08.808Z,84.29
2018-07-07T03:14:12.766Z,84.23
2018-07-07T03:17:15.726Z,84.18
2018-07-07T03:20:18.774Z,84.07
2018-07-07T03:23:21.759Z,84.37
2018-07-07T03:26:25.851Z,84.04
2018-07-07T03:29:34.277Z,84.25
2018-07-07T03:32:39.548Z,83.97
2018-07-07T03:35:43.515Z,83.89
2018-07-07T03:38:46.461Z,82.50
2018-07-07T03:41:53.759Z,82.81
2018-07-07T03:44:56.794Z,83.27
2018-07-07T03:48:00.838Z,82.92
2018-07-07T03:51:04.830Z,83.34
2018-07-07T03:54:09.903Z,83.74
2018-07-07T03:57:12.965Z,84.41
2018-07-07T04:00:17.114Z,84.26
2018-07-07T04:03:20.199Z,83.27
2018-07-07T04:06:24.157Z,83.06
2018-07-07T04:09:27.195Z,83.52
2018-07-07T04:12:30.272Z,83.82
2018-07-07T04:15:34.367Z,83.13
2018-07-07T04:18:37.369Z,82.98
2018-07-07T04:21:40.334Z,81.80
2018-07-07T04:24:44.410Z,81.60
2018-07-07T04:27:47.420Z,81.06
2018-07-07T04:30:51.641Z,79.64
2018-07-07T04:33:54.679Z,78.84
2018-07-07T04:36:57.709Z,79.79
2018-07-07T04:40:01.725Z,78.94
2018-07-07T04:43:09.601Z,79.95
2018-07-07T04:46:14.625Z,80.01
2018-07-07T04:49:17.747Z,78.86
2018-07-07T04:52:20.767Z,77.17
2018-07-07T04:55:23.730Z,76.78
2018-07-07T04:58:26.797Z,75.66
2018-07-07T05:01:29.802Z,75.37
2018-07-07T05:04:32.916Z,74.03
2018-07-07T05:07:37.920Z,72.01
2018-07-07T05:10:41.979Z,71.54
2018-07-07T05:13:46.980Z,65.62
2018-07-07T05:16:52.025Z,62.12
2018-07-07T05:19:55.114Z,64.42
2018-07-07T05:22:58.102Z,67.83
2018-07-07T05:26:01.174Z,67.35
2018-07-07T05:29:04.150Z,65.72
2018-07-07T05:32:07.183Z,68.03
2018-07-07T05:35:10.062Z,70.35
2018-07-07T05:38:15.291Z,71.03
2018-07-07T05:41:19.284Z,72.99
2018-07-07T05:44:22.264Z,72.48
2018-07-07T05:47:30.245Z,70.58
2018-07-07T05:50:34.267Z,67.29
2018-07-07T05:53:38.308Z,63.62
2018-07-07T05:56:42.305Z,60.37
2018-07-07T05:59:46.302Z,59.85
2018-07-07T06:02:50.382Z,60.47
2018-07-07T06:05:54.330Z,61.32
2018-07-07T06:08:57.473Z,60.57
2018-07-07T06:12:00.546Z,56.26
2018-07-07T06:15:09.437Z,49.71
2018-07-07T06:18:12.490Z,45.65
2018-07-07T06:21:15.869Z,47.30
2018-07-07T06:24:19.943Z,48.81
2018-07-07T06:27:22.908Z,44.32
2018-07-07T06:30:27.094Z,46.51
2018-07-07T06:33:31.079Z,44.73
2018-07-07T06:36:35.092Z,48.69
2018-07-07T06:39:38.040Z,52.60
2018-07-07T06:42:42.129Z,55.69
2018-07-07T06:45:46.128Z,56.13
2018-07-07T06:48:49.221Z,52.57
2018-07-07T06:51:53.167Z,45.17
2018-07-07T06:55:00.398Z,43.21
2018-07-07T06:58:04.522Z,44.05
2018-07-07T07:01:07.529Z,43.24
2018-07-07T07:04:10.603Z,44.77
2018-07-07T07:07:14.743Z,47.08
2018-07-07T07:10:17.785Z,46.43
2018-07-07T07:13:20.759Z,43.75
2018-07-07T07:16:24.766Z,39.90
2018-07-07T07:19:30.925Z,40.95
2018-07-07T07:22:35.914Z,40.96
2018-07-07T07:25:39.959Z,41.75
2018-07-07T07:28:42.957Z,45.82
2018-07-07T07:31:47.941Z,43.95
2018-07-07T07:34:50.991Z,38.18
2018-07-07T07:37:55.073Z,36.78
2018-07-07T07:40:59.030Z,35.33
2018-07-07T07:44:02.102Z,36.00
2018-07-07T07:47:07.110Z,35.44
2018-07-07T07:50:10.107Z,34.77
2018-07-07T07:53:13.063Z,35.03
2018-07-07T07:56:17.143Z,37.06
2018-07-07T07:59:21.220Z,37.32
2018-07-07T08:02:24.321Z,34.18
2018-07-07T08:05:28.297Z,34.86
2018-07-07T08:08:33.333Z,36.65
2018-07-07T08:11:37.367Z,34.76
2018-07-07T08:14:41.381Z,35.96
2018-07-07T08:17:44.384Z,36.76
2018-07-07T08:20:48.339Z,38.73
2018-07-07T08:23:54.698Z,39.49
2018-07-07T08:26:59.753Z,37.12
2018-07-07T08:30:02.839Z,38.47
2018-07-07T08:33:05.805Z,40.32
2018-07-07T08:36:09.861Z,42.41
2018-07-07T08:39:12.788Z,42.33
2018-07-07T08:42:16.794Z,41.51
2018-07-07T08:45:19.950Z,43.70
2018-07-07T08:48:24.021Z,42.76
2018-07-07T08:51:26.998Z,45.25
2018-07-07T08:54:30.005Z,43.93
2018-07-07T08:57:34.050Z,44.55
2018-07-07T09:00:36.970Z,44.23
2018-07-07T09:03:41.959Z,42.47
2018-07-07T09:06:44.877Z,41.66
2018-07-07T09:09:49.899Z,42.52
2018-07-07T09:12:54.941Z,41.21
2018-07-07T09:15:57.969Z,40.20
2018-07-07T09:19:01.010Z,41.05
2018-07-07T09:22:05.951Z,40.67
2018-07-07T09:25:08.954Z,40.20
2018-07-07T09:28:13.949Z,43.19
2018-07-07T09:31:19.989Z,43.35
2018-07-07T09:34:24.086Z,41.79
2018-07-07T09:37:27.582Z,40.60
2018-07-07T09:40:31.587Z,40.94
2018-07-07T09:43:34.644Z,42.17
2018-07-07T09:46:38.629Z,42.21
2018-07-07T09:49:42.653Z,40.37
2018-07-07T09:52:45.611Z,39.15
2018-07-07T09:55:49.742Z,39.83
2018-07-07T09:58:53.699Z,38.37
2018-07-07T10:01:57.977Z,38.83
2018-07-07T10:05:01.913Z,40.03
2018-07-07T10:08:05.985Z,41.02
2018-07-07T10:11:08.905Z,40.08
2018-07-07T10:14:12.914Z,38.48
2018-07-07T10:17:15.947Z,36.92
2018-07-07T10:20:18.936Z,37.95
2018-07-07T10:23:25.662Z,41.41
2018-07-07T10:26:28.859Z,41.79
2018-07-07T10:29:31.855Z,44.28
2018-07-07T10:32:34.819Z,43.68
2018-07-07T10:35:37.800Z,41.78
2018-07-07T10:38:40.870Z,39.13
2018-07-07T10:41:43.962Z,38.51
2018-07-07T10:44:47.935Z,38.47
2018-07-07T10:47:51.978Z,39.25
2018-07-07T10:50:55.091Z,38.73
2018-07-07T10:53:59.054Z,40.75
2018-07-07T10:57:02.014Z,39.21
2018-07-07T11:00:05.669Z,36.71
2018-07-07T11:03:08.779Z,40.41
2018-07-07T11:06:11.928Z,40.72
2018-07-07T11:09:14.913Z,38.81
2018-07-07T11:12:18.981Z,39.73
2018-07-07T11:15:21.948Z,38.34
2018-07-07T11:18:24.918Z,35.27
2018-07-07T11:21:28.216Z,34.74
2018-07-07T11:24:31.198Z,36.55
2018-07-07T11:27:38.688Z,37.56
2018-07-07T11:30:42.697Z,36.77
2018-07-07T11:33:45.740Z,39.47
2018-07-07T11:36:49.877Z,39.49
2018-07-07T11:39:52.881Z,39.69
2018-07-07T11:42:55.855Z,39.82
2018-07-07T11:45:58.892Z,39.36
2018-07-07T11:49:03.980Z,38.96
2018-07-07T11:52:07.062Z,39.29
2018-07-07T11:55:10.249Z,38.50
2018-07-07T11:58:14.301Z,36.88
2018-07-07T12:01:19.366Z,36.47
2018-07-07T12:04:23.436Z,36.45
2018-07-07T12:07:27.397Z,37.76
2018-07-07T12:10:30.369Z,39.64
2018-07-07T12:13:33.408Z,36.58
2018-07-07T12:16:36.351Z,36.70
2018-07-07T12:19:39.358Z,35.50
2018-07-07T12:22:42.344Z,35.29
2018-07-07T12:25:46.341Z,35.15
2018-07-07T12:28:49.395Z,35.02
2018-07-07T12:31:52.469Z,36.30
2018-07-07T12:34:55.471Z,36.29
2018-07-07T12:37:58.465Z,36.00
2018-07-07T12:41:01.558Z,35.88
2018-07-07T12:44:04.561Z,35.43
2018-07-07T12:47:07.623Z,35.59
2018-07-07T12:50:10.649Z,35.71
2018-07-07T12:53:13.736Z,36.27
2018-07-07T12:56:16.836Z,37.35
2018-07-07T12:59:19.904Z,37.86
2018-07-07T13:02:22.949Z,36.90
2018-07-07T13:05:25.982Z,36.27
2018-07-07T13:08:29.083Z,35.58
2018-07-07T13:11:32.177Z,36.00
2018-07-07T13:14:35.333Z,36.92
2018-07-07T13:17:38.545Z,36.41
2018-07-07T13:20:41.654Z,35.50
2018-07-07T13:23:44.793Z,35.94
2018-07-07T13:26:48.897Z,34.75
2018-07-07T13:29:51.926Z,35.68
2018-07-07T13:32:55.051Z,34.25
2018-07-07T13:35:58.029Z,33.42
2018-07-07T13:39:01.002Z,33.63
2018-07-07T13:42:04.050Z,33.66
2018-07-07T13:45:07.054Z,32.27
2018-07-07T13:48:10.188Z,32.56
2018-07-07T13:51:13.218Z,33.81
2018-07-07T13:54:16.251Z,35.54
2018-07-07T13:57:19.326Z,35.04
2018-07-07T14:00:22.489Z,34.68
2018-07-07T14:03:25.456Z,34.24
2018-07-07T14:06:28.409Z,35.62
2018-07-07T14:09:31.528Z,35.39
2018-07-07T14:12:34.441Z,35.84
2018-07-07T14:15:37.414Z,34.37
2018-07-07T14:18:40.386Z,31.80
2018-07-07T14:21:43.394Z,31.11
2018-07-07T14:24:46.384Z,31.06
2018-07-07T14:27:49.420Z,30.50
2018-07-07T14:30:52.473Z,29.99
2018-07-07T14:33:55.525Z,30.47
2018-07-07T14:36:58.527Z,30.95
2018-07-07T14:40:01.642Z,32.01
2018-07-07T14:43:04.924Z,31.28
2018-07-07T14:46:08.054Z,29.17
2018-07-07T14:49:11.110Z,31.03
2018-07-07T14:52:14.038Z,30.72
2018-07-07T14:55:18.217Z,31.58
2018-07-07T14:58:21.232Z,32.26
2018-07-07T15:01:24.343Z,31.86
2018-07-07T15:04:27.430Z,32.14
2018-07-07T15:07:30.669Z,31.86
2018-07-07T15:10:33.687Z,32.51
2018-07-07T15:13:36.668Z,32.57
2018-07-07T15:16:39.731Z,29.31
2018-07-07T15:19:42.800Z,30.43
2018-07-07T15:22:46.035Z,29.53
2018-07-07T15:25:48.985Z,29.79
2018-07-07T15:28:52.061Z,30.09
2018-07-07T15:31:55.089Z,29.74
2018-07-07T15:34:58.173Z,29.95
2018-07-07T15:38:01.249Z,29.19
2018-07-07T15:41:04.353Z,29.53
2018-07-07T15:44:07.378Z,29.68
2018-07-07T15:47:10.373Z,29.05
2018-07-07T15:50:13.400Z,30.25
2018-07-07T15:53:16.420Z,29.17
2018-07-07T15:56:19.553Z,29.75
2018-07-07T15:59:22.587Z,29.02
2018-07-07T16:02:25.647Z,28.21
2018-07-07T16:05:28.667Z,28.90
2018-07-07T16:08:31.829Z,30.52
2018-07-07T16:11:34.993Z,28.77
2018-07-07T16:14:38.157Z,30.28
2018-07-07T16:17:41.177Z,28.89
2018-07-07T16:20:46.268Z,28.00
2018-07-07T16:23:49.275Z,28.48
2018-07-07T16:26:52.402Z,28.14
2018-07-07T16:29:55.434Z,30.24
2018-07-07T16:32:58.550Z,28.87
2018-07-07T16:36:01.589Z,30.57
2018-07-07T16:39:05.157Z,29.14
2018-07-07T16:42:08.133Z,29.52
2018-07-07T16:45:11.125Z,29.54
2018-07-07T16:48:14.235Z,29.03
2018-07-07T16:51:17.282Z,28.56
2018-07-07T16:54:21.170Z,28.93
2018-07-07T16:57:24.383Z,28.55
2018-07-07T17:00:27.472Z,27.52
2018-07-07T17:03:30.553Z,27.62
2018-07-07T17:06:33.636Z,28.14
2018-07-07T17:09:36.869Z,27.51
2018-07-07T17:12:41.198Z,27.46
2018-07-07T17:15:44.327Z,27.26
2018-07-07T17:18:47.858Z,27.39
2018-07-07T17:21:51.142Z,28.19
2018-07-07T17:24:54.850Z,27.52
2018-07-07T17:27:58.050Z,29.00
2018-07-07T17:31:02.106Z,29.51
2018-07-07T17:34:05.237Z,30.06
2018-07-07T17:37:08.270Z,30.28
2018-07-07T17:40:11.653Z,30.03
2018-07-07T17:43:14.787Z,31.01
2018-07-07T17:46:18.009Z,31.47
2018-07-07T17:49:22.194Z,30.38
2018-07-07T17:52:25.154Z,31.36
2018-07-07T17:55:28.327Z,31.62
2018-07-07T17:58:32.388Z,31.60
2018-07-07T18:01:35.767Z,31.72
2018-07-07T18:04:38.906Z,32.21
2018-07-07T18:07:42.958Z,32.92
2018-07-07T18:10:46.062Z,33.50
2018-07-07T18:13:49.027Z,32.45
2018-07-07T18:16:52.110Z,33.17
2018-07-07T18:19:55.167Z,33.63
2018-07-07T18:22:58.204Z,34.24
2018-07-07T18:26:01.312Z,34.34
2018-07-07T18:29:04.430Z,34.67
2018-07-07T18:32:07.401Z,35.69
2018-07-07T18:35:10.428Z,36.20
2018-07-07T18:38:13.493Z,37.11
2018-07-07T18:41:16.529Z,37.91
2018-07-07T18:44:19.547Z,37.38
2018-07-07T18:47:22.489Z,36.99
2018-07-07T18:50:25.457Z,38.11
2018-07-07T18:53:28.504Z,38.60
2018-07-07T18:56:31.597Z,39.22
2018-07-07T18:59:34.557Z,39.81
2018-07-07T19:02:37.545Z,40.27
2018-07-07T19:05:40.562Z,40.55
2018-07-07T19:08:43.591Z,40.40
2018-07-07T19:11:46.745Z,40.45
2018-07-07T19:14:49.807Z,41.08
2018-07-07T19:17:53.776Z,41.83
2018-07-07T19:21:02.246Z,41.17
2018-07-07T19:24:11.759Z,42.18
2018-07-07T19:27:14.756Z,43.66
2018-07-07T19:30:17.688Z,43.43
2018-07-07T19:33:26.229Z,43.86
2018-07-07T19:36:34.829Z,44.55
2018-07-07T19:39:37.861Z,45.39
2018-07-07T19:42:40.909Z,45.83
2018-07-07T19:45:43.939Z,45.67
2018-07-07T19:48:47.906Z,46.79
2018-07-07T19:51:50.967Z,47.43
2018-07-07T19:54:54.000Z,47.79
2018-07-07T19:57:56.957Z,47.53
2018-07-07T20:01:00.049Z,48.42
2018-07-07T20:04:03.021Z,48.83
2018-07-07T20:07:07.045Z,49.34
2018-07-07T20:10:11.046Z,51.10
2018-07-07T20:13:14.177Z,51.34
2018-07-07T20:16:20.311Z,50.60
2018-07-07T20:19:24.133Z,52.74
2018-07-07T20:22:27.181Z,54.23
2018-07-07T20:25:30.232Z,54.27
2018-07-07T20:28:39.082Z,55.98
2018-07-07T20:31:48.461Z,56.70
2018-07-07T20:34:51.577Z,58.38
2018-07-07T20:37:54.677Z,58.44
2018-07-07T20:40:57.697Z,59.72
2018-07-07T20:44:00.740Z,62.41
2018-07-07T20:47:03.933Z,62.88
2018-07-07T20:50:07.019Z,63.87
2018-07-07T20:53:10.128Z,64.55
2018-07-07T20:56:13.208Z,64.29
2018-07-07T20:59:16.324Z,64.94
2018-07-07T21:02:19.354Z,64.56
2018-07-07T21:05:23.422Z,64.56
2018-07-07T21:08:26.473Z,64.60
2018-07-07T21:11:30.242Z,65.37
2018-07-07T21:14:33.203Z,66.77
2018-07-07T21:17:36.246Z,66.71
2018-07-07T21:20:39.239Z,67.33
2018-07-07T21:23:43.387Z,66.69
2018-07-07T21:26:46.393Z,68.12
2018-07-07T21:29:49.470Z,67.38
2018-07-07T21:32:52.507Z,67.97
2018-07-07T21:35:55.470Z,67.93
2018-07-07T21:38:58.497Z,68.68
2018-07-07T21:42:01.494Z,68.18
2018-07-07T21:45:05.553Z,69.35
2018-07-07T21:48:08.534Z,69.04
2018-07-07T21:51:11.456Z,70.45
2018-07-07T21:54:15.548Z,70.20
2018-07-07T21:57:24.207Z,70.84
2018-07-07T22:00:32.742Z,71.17
2018-07-07T22:03:41.354Z,70.77
2018-07-07T22:06:52.016Z,70.87
2018-07-07T22:09:56.065Z,71.14
2018-07-07T22:12:59.125Z,71.90
2018-07-07T22:16:03.258Z,72.92
2018-07-07T22:19:07.260Z,73.16
2018-07-07T22:22:10.839Z,74.00
2018-07-07T22:25:14.883Z,74.74
2018-07-07T22:28:20.131Z,74.96
2018-07-07T22:31:24.210Z,74.70
2018-07-07T22:34:31.365Z,72.83
2018-07-07T22:37:34.325Z,72.26
2018-07-07T22:40:37.322Z,71.92
2018-07-07T22:43:40.401Z,72.89
2018-07-07T22:46:43.472Z,73.57
2018-07-07T22:49:47.587Z,74.32
2018-07-07T22:52:50.638Z,73.48
2018-07-07T22:55:53.568Z,73.71
2018-07-07T22:58:56.621Z,74.21
2018-07-07T23:01:59.611Z,74.61
2018-07-07T23:05:03.286Z,75.45
2018-07-07T23:08:06.418Z,74.68
2018-07-07T23:11:09.410Z,75.57
2018-07-07T23:14:13.494Z,76.11
2018-07-07T23:17:16.456Z,75.94
2018-07-07T23:20:19.866Z,74.92
2018-07-07T23:23:22.950Z,74.73
2018-07-07T23:26:26.332Z,73.98
2018-07-07T23:29:29.700Z,74.79
2018-07-07T23:32:32.770Z,75.69
2018-07-07T23:35:35.913Z,76.23
2018-07-07T23:38:39.376Z,76.21
2018-07-07T23:41:42.445Z,76.66
2018-07-07T23:44:45.579Z,76.93
2018-07-07T23:47:48.517Z,76.75
2018-07-07T23:50:51.627Z,76.55
2018-07-07T23:53:55.773Z,77.11
2018-07-07T23:56:58.823Z,77.36
